Hlavní strana
METAR-TAF:

METAR-TAF

Letiště :

Ohrid, Makedonie

zeměpisná šířka: 41-07N, zeměpisná délka: 020-48E, výška: 760 m

Aktuální stav počasí

Zpráva byla vytvořena před 20 minutami, v 08:30 UTC
Severoseverozápadní vítr 11 kt
Teplota 4°C
Vlhkost vzduchu 81%
Tlak 1011 hPa
Viditelnost 10 km a více
Oblačno až skoro zataženo ve výšce 3500 ft
Zataženo ve výšce 8000 ft
mrholení

METAR: LWOH 110830Z 34011KT 9999 DZ BKN035 OVC080 04/01 Q1011

Čas: 09:50 (08:50 UTC)

Předpověď počasí

Zpráva byla vytvořena před 20 minutami, v 08:30 UTC
Předpověď platná od 11 v 09 UTC do 12 v 09 UTC
Severoseverozápadní vítr 12 kt
Viditelnost 10 km a více
Oblačno až skoro zataženo ve výšce 4000 ft
Zataženo ve výšce 8000 ft
Dočasný
od 11 v 09 UTC do 11 v 18 UTC
Viditelnost: 5000 m
Polojasno ve výšce 1500 ft
Zataženo ve výšce 3000 ft
déšť

TAF: LWOH 110830Z 1109/1209 34012KT 9999 BKN040 OVC080 TEMPO 1109/1118 5000 RA SCT015 OVC030

Stav a předpovědi počasí z více než 4 000 letišť (zprávy METAR a TAF).

Červené a žluté tečky na mapě představují dostupné meteorologické stanice.

Když kurzor umístíte na tečku, zobrazí se název stanice.

Pak kliknutím zobrazíte stav a předpověď počasí.

Chcete-li změnit mapu, kliknutím na zelené tlačítko se znaménkem +mapu přiblížíte, kliknutím na zelené tlačítko se znaménkem – mapu oddálíte a kliknutím na zelené šipky přejdete na sousední mapy.


METAR-TAF: